Time;durP1;ratioP1;P1;durP2;ratioP2;P2;SDS_P1;SDS_P2;PMS_P1;PMS_P2;Temp;Humidity;BMP_temperature;BMP_pressure;BME280_temperature;BME280_humidity;BME280_pressure;Samples;Min_cycle;Max_cycle;Signal;HPM_P1;HPM_P2
2022/12/12 00:09:29;;;;;;;67.88;25.20;;;;;;;;;;5600485;22;20487;-69
2022/12/12 00:11:55;;;;;;;67.93;24.52;;;;;;;;;;5985697;22;20127;-74
2022/12/12 00:14:21;;;;;;;68.63;23.98;;;;;;;;;;5058497;22;20075;-73
2022/12/12 00:16:47;;;;;;;71.20;25.55;;;;;;;;;;5074424;28;20044;-72
2022/12/12 00:19:13;;;;;;;65.65;24.45;;;;;;;;;;5074644;28;20123;-72
2022/12/12 00:22:32;;;;;;;79.07;24.48;;;0.60;99.90;;;;;;5056339;28;20609;-73
2022/12/12 00:24:58;;;;;;;71.13;25.15;;;;;;;;;;5065914;22;20037;-85
2022/12/12 00:27:24;;;;;;;64.75;24.17;;;;;;;;;;5026690;28;20080;-83
2022/12/12 00:29:54;;;;;;;68.38;24.73;;;;;;;;;;5013687;28;20048;-83
2022/12/12 00:32:20;;;;;;;71.10;24.13;;;;;;;;;;5029198;28;20037;-82
2022/12/12 00:42:40;;;;;;;69.93;25.38;;;0.70;99.90;;;;;;5706878;22;20113;-73
2022/12/12 00:45:06;;;;;;;74.68;25.42;;;;;;;;;;5946030;22;20350;-71
2022/12/12 00:47:32;;;;;;;67.93;23.88;;;;;;;;;;5045567;22;20083;-72
2022/12/12 00:49:58;;;;;;;75.22;25.50;;;;;;;;;;5057179;28;20100;-72
2022/12/12 00:52:24;;;;;;;67.78;24.15;;;;;;;;;;5077199;28;20042;-72
2022/12/12 00:54:51;;;;;;;74.80;27.60;;;;;;;;;;5077503;28;20043;-72
2022/12/12 00:57:17;;;;;;;75.40;27.85;;;;;;;;;;5077093;28;20506;-72
2022/12/12 00:59:43;;;;;;;60.55;24.35;;;;;;;;;;5077561;28;20118;-72
2022/12/12 01:02:09;;;;;;;74.13;26.20;;;;;;;;;;5075970;28;20054;-72
2022/12/12 01:04:35;;;;;;;68.68;24.45;;;;;;;;;;5077142;28;20118;-72
2022/12/12 01:29:38;;;;;;;70.60;23.90;;;;;;;;;;5804407;22;20138;31
2022/12/12 01:32:04;;;;;;;71.60;24.38;;;;;;;;;;5046625;23;20491;-72
2022/12/12 01:34:30;;;;;;;79.65;26.42;;;;;;;;;;5022271;28;20089;-72
2022/12/12 01:36:56;;;;;;;63.88;23.88;;;;;;;;;;5055603;28;20033;-72
2022/12/12 01:39:22;;;;;;;62.45;25.25;;;;;;;;;;5021598;28;20040;-72
2022/12/12 01:41:48;;;;;;;73.88;25.48;;;;;;;;;;5055013;28;20139;-72
2022/12/12 01:44:33;;;;;;;66.35;23.48;;;;;;;;;;5055009;28;20488;-72
2022/12/12 01:47:03;;;;;;;75.18;24.88;;;;;;;;;;5055158;28;20040;-72
2022/12/12 01:49:30;;;;;;;72.93;25.58;;;;;;;;;;5055193;28;20037;-72
2022/12/12 01:52:02;;;;;;;83.53;27.85;;;;;;;;;;5038687;28;20045;-72
2022/12/12 01:54:33;;;;;;;71.13;25.13;;;;;;;;;;5055290;28;20052;-72
2022/12/12 01:57:02;;;;;;;67.25;24.33;;;;;;;;;;5054895;28;20050;-72
2022/12/12 01:59:28;;;;;;;70.43;25.08;;;;;;;;;;5054911;28;20129;-72
2022/12/12 02:01:55;;;;;;;70.18;25.88;;;;;;;;;;5055156;28;20089;-72
2022/12/12 02:04:22;;;;;;;69.32;26.60;;;;;;;;;;5054587;28;20541;-72
2022/12/12 02:06:50;;;;;;;76.82;27.50;;;;;;;;;;5054710;28;20037;-72
2022/12/12 02:09:16;;;;;;;81.55;26.90;;;;;;;;;;5054711;28;20032;-72
2022/12/12 02:11:50;;;;;;;80.38;27.65;;;;;;;;;;5054623;28;20406;-72
2022/12/12 02:14:33;;;;;;;73.88;25.13;;;;;;;;;;5037522;28;20041;-72
2022/12/12 02:17:18;;;;;;;79.63;26.58;;;;;;;;;;5054590;28;20036;-72
2022/12/12 02:19:53;;;;;;;84.45;26.58;;;;;;;;;;5037847;28;20036;-72
2022/12/12 02:22:19;;;;;;;72.53;26.17;;;;;;;;;;5054429;28;20487;-72
2022/12/12 02:24:45;;;;;;;71.65;24.27;;;;;;;;;;5037826;28;20547;-72
2022/12/12 02:27:11;;;;;;;74.10;26.02;;;;;;;;;;5054506;28;20186;-72
2022/12/12 02:29:54;;;;;;;71.93;26.48;;;;;;;;;;5053691;28;20121;-72
2022/12/12 02:32:39;;;;;;;82.32;27.92;;;;;;;;;;5017586;28;20171;-72
2022/12/12 02:35:11;;;;;;;73.22;25.88;;;;;;;;;;5034249;28;20091;-73
2022/12/12 02:37:43;;;;;;;81.10;29.58;;;;;;;;;;5034535;28;20048;-73
2022/12/12 02:40:09;;;;;;;80.15;25.73;;;;;;;;;;5034739;28;20140;-73
2022/12/12 02:42:44;;;;;;;77.30;27.63;;;;;;;;;;5031684;28;20044;-73
2022/12/12 02:45:16;;;;;;;73.97;26.15;;;;;;;;;;5017480;28;20537;-73
2022/12/12 02:47:52;;;;;;;90.53;29.42;;;;;;;;;;5034349;28;20032;-73
2022/12/12 02:50:21;;;;;;;77.45;26.88;;;;;;;;;;5033398;28;20045;-73
2022/12/12 02:52:47;;;;;;;78.82;27.08;;;;;;;;;;5032014;28;20041;-73
2022/12/12 02:55:14;;;;;;;69.60;26.38;;;;;;;;;;5033965;28;20167;-73
2022/12/12 02:57:40;;;;;;;77.35;27.70;;;;;;;;;;5034310;28;20481;-73
2022/12/12 03:00:09;;;;;;;74.28;25.45;;;;;;;;;;5017561;28;20051;-73
2022/12/12 03:07:45;;;;;;;79.47;27.73;;;;;;;;;;5017830;28;20168;-73
2022/12/12 03:08:27;;;;;;;74.15;28.60;;;;;;;;;;5033925;28;20041;-73
2022/12/12 03:11:12;;;;;;;74.57;26.85;;;;;;;;;;5034003;28;20037;-73
2022/12/12 03:13:50;;;;;;;69.82;26.27;;;;;;;;;;5033884;28;20048;-73
2022/12/12 03:16:27;;;;;;;75.28;27.27;;;;;;;;;;5017293;28;20198;-75
2022/12/12 03:18:56;;;;;;;69.10;25.02;;;;;;;;;;5017624;28;20041;-74
2022/12/12 03:21:35;;;;;;;69.95;25.25;;;;;;;;;;5033497;28;20033;-73
2022/12/12 03:24:14;;;;;;;71.60;26.70;;;;;;;;;;5033855;28;20086;-73
2022/12/12 03:26:48;;;;;;;75.25;25.13;;;;;;;;;;5017317;28;20041;-73
2022/12/12 03:29:16;;;;;;;76.88;27.65;;;;;;;;;;5017202;28;20032;-74
2022/12/12 03:31:44;;;;;;;73.55;26.02;;;;;;;;;;5033506;28;20060;-73
2022/12/12 03:34:24;;;;;;;80.75;28.05;;;;;;;;;;5033791;28;20037;-73
2022/12/12 03:37:06;;;;;;;76.93;26.88;;;;;;;;;;5017291;28;20036;-73
2022/12/12 03:39:42;;;;;;;81.85;27.65;;;;;;;;;;5033621;28;20033;-73
2022/12/12 03:42:11;;;;;;;74.03;26.02;;;;;;;;;;5033575;28;20037;-73
2022/12/12 03:44:41;;;;;;;76.45;26.00;;;;;;;;;;5017397;28;20116;-73
2022/12/12 03:47:11;;;;;;;82.13;26.05;;;;;;;;;;5017280;28;20506;-73
2022/12/12 03:50:06;;;;;;;81.10;26.55;;;;;;;;;;5031652;28;20492;-73
2022/12/12 03:52:32;;;;;;;76.18;26.02;;;;;;;;;;5029058;28;20088;-73
2022/12/12 03:55:02;;;;;;;71.03;26.33;;;;;;;;;;5034024;28;20036;-74
2022/12/12 03:57:34;;;;;;;79.47;27.17;;;;;;;;;;5033549;28;20079;-73
2022/12/12 04:00:08;;;;;;;74.57;27.00;;;;;;;;;;5033646;28;20080;-74
2022/12/12 04:02:39;;;;;;;79.32;26.75;;;;;;;;;;5036965;28;20087;-73
2022/12/12 04:05:05;;;;;;;70.97;25.48;;;;;;;;;;5037159;28;20029;-73
2022/12/12 04:07:41;;;;;;;80.20;26.40;;;;;;;;;;5037380;28;20055;-73
2022/12/12 04:13:08;;;;;;;70.72;26.73;;;;;;;;;;5037103;28;20045;-73
2022/12/12 04:15:37;;;;;;;79.57;27.40;;;;;;;;;;5036715;28;20033;-73
2022/12/12 04:18:03;;;;;;;68.90;25.30;;;;;;;;;;5036877;28;20040;-73
2022/12/12 04:23:31;;;;;;;71.88;26.27;;;;;;;;;;5036740;28;20053;-73
2022/12/12 04:28:50;;;;;;;73.95;26.77;;;;;;;;;;5036674;28;20593;-73
2022/12/12 04:31:17;;;;;;;70.65;25.40;;;;;;;;;;5033056;28;20107;-73
2022/12/12 04:33:47;;;;;;;73.78;26.92;;;;;;;;;;5033307;28;20048;-73
2022/12/12 04:36:14;;;;;;;68.57;25.38;;;;;;;;;;5030483;28;20120;-73
2022/12/12 04:38:42;;;;;;;63.75;24.98;;;;;;;;;;5033220;28;20033;-74
2022/12/12 04:41:10;;;;;;;72.05;25.13;;;;;;;;;;5033279;28;20116;-74
2022/12/12 04:43:38;;;;;;;71.97;26.17;;;;;;;;;;5016420;28;20128;-74
2022/12/12 04:46:06;;;;;;;70.97;26.48;;;;;;;;;;5032879;28;20156;-74
2022/12/12 04:48:34;;;;;;;78.25;26.77;;;;;;;;;;5033100;28;20500;-74
2022/12/12 04:51:02;;;;;;;70.75;26.38;;;;;;;;;;5016544;28;20034;-74
2022/12/12 04:53:33;;;;;;;75.18;26.58;;;;;;;;;;5033072;28;20068;-74
2022/12/12 04:56:00;;;;;;;70.03;26.30;;;;;;;;;;5032726;28;20037;-74
2022/12/12 04:58:27;;;;;;;73.38;24.90;;;;;;;;;;5016470;28;20045;-73
2022/12/12 05:00:57;;;;;;;68.38;24.35;;;;;;;;;;4999956;28;20041;-75
2022/12/12 05:03:30;;;;;;;72.80;26.67;;;;;;;;;;5031179;28;20041;-74
2022/12/12 05:06:06;;;;;;;67.63;24.60;;;;;;;;;;5032928;28;20029;-74
2022/12/12 05:08:34;;;;;;;66.55;25.58;;;;;;;;;;5015996;28;20037;-74
2022/12/12 05:11:01;;;;;;;65.60;23.95;;;;;;;;;;5032207;28;20080;-74
2022/12/12 05:13:29;;;;;;;68.63;24.52;;;;;;;;;;5015864;28;20469;-74
2022/12/12 05:15:57;;;;;;;59.78;21.80;;;;;;;;;;5032325;28;20069;-74
2022/12/12 05:18:23;;;;;;;62.85;23.35;;;;;;;;;;5032446;28;20120;-74
2022/12/12 05:20:49;;;;;;;69.13;23.83;;;;;;;;;;5015676;28;20044;-74
2022/12/12 05:23:16;;;;;;;66.78;22.65;;;;;;;;;;5015899;28;20034;-74
2022/12/12 05:25:42;;;;;;;68.13;25.55;;;;;;;;;;5015809;28;20041;-74
2022/12/12 05:28:08;;;;;;;63.72;22.98;;;;;;;;;;4983497;28;20061;-74
2022/12/12 05:30:34;;;;;;;72.55;23.38;;;;;;;;;;5032024;28;20037;-74
2022/12/12 05:33:01;;;;;;;68.85;23.40;;;;;;;;;;5034953;28;20067;-74
2022/12/12 05:35:27;;;;;;;63.55;22.83;;;;;;;;;;5019475;28;20400;-74
2022/12/12 05:37:53;;;;;;;63.35;23.05;;;;;;;;;;5035639;28;20079;-74
2022/12/12 05:40:20;;;;;;;65.05;22.23;;;;;;;;;;5035425;28;20037;-74
2022/12/12 05:42:46;;;;;;;68.45;22.88;;;;;;;;;;5035189;28;20041;-74
2022/12/12 05:45:13;;;;;;;64.03;22.40;;;;;;;;;;5035435;28;20435;-74
2022/12/12 05:47:39;;;;;;;63.78;23.55;;;;;;;;;;5035244;28;20060;-74
2022/12/12 05:50:06;;;;;;;57.28;20.83;;;;;;;;;;5019157;28;20116;-74
2022/12/12 05:52:32;;;;;;;62.47;23.25;;;;;;;;;;5034867;28;20041;-74
2022/12/12 05:54:58;;;;;;;58.03;20.52;;;;;;;;;;5035382;28;20056;-74
2022/12/12 05:57:24;;;;;;;61.67;22.00;;;;;;;;;;5032936;28;20045;-74
2022/12/12 05:59:50;;;;;;;58.75;21.10;;;;;;;;;;5034836;28;20124;-74
2022/12/12 06:02:17;;;;;;;65.57;22.30;;;;;;;;;;5019075;28;20128;-74
2022/12/12 06:04:43;;;;;;;59.60;21.77;;;;;;;;;;5037039;28;21200;-75
2022/12/12 06:07:09;;;;;;;60.70;21.90;;;;;;;;;;5032996;28;20503;-74
2022/12/12 06:09:35;;;;;;;61.45;22.70;;;;;;;;;;5018525;28;20029;-74
2022/12/12 06:12:01;;;;;;;57.65;21.38;;;;;;;;;;5035466;28;20055;-74
2022/12/12 06:14:27;;;;;;;58.33;22.13;;;;;;;;;;5036036;28;20037;-74
2022/12/12 06:16:54;;;;;;;62.08;20.38;;;;;;;;;;5018549;28;20049;-74
2022/12/12 06:19:20;;;;;;;67.85;23.38;;;;;;;;;;5034696;28;20047;-74
2022/12/12 06:21:46;;;;;;;59.90;22.38;;;;;;;;;;5034868;28;20037;-74
2022/12/12 06:24:13;;;;;;;56.28;21.15;;;;;;;;;;5034019;28;20389;-74
2022/12/12 06:26:39;;;;;;;58.00;20.70;;;;;;;;;;5018310;28;20052;-74
2022/12/12 06:29:05;;;;;;;56.22;20.15;;;;;;;;;;5017952;28;20504;-74
2022/12/12 06:31:31;;;;;;;59.97;21.35;;;;;;;;;;5028989;28;20085;-74
2022/12/12 06:33:57;;;;;;;61.33;22.48;;;;;;;;;;5031368;28;20087;-74
2022/12/12 06:36:24;;;;;;;59.78;20.67;;;;;;;;;;5014867;28;20033;-74
2022/12/12 06:38:51;;;;;;;58.20;20.50;;;;;;;;;;5031085;28;20056;-74
2022/12/12 06:41:18;;;;;;;56.03;21.35;;;;;;;;;;5029051;28;20037;-74
2022/12/12 06:43:44;;;;;;;57.45;20.70;;;;;;;;;;4998431;28;20120;-74
2022/12/12 06:46:13;;;;;;;60.70;21.38;;;;;;;;;;5033508;28;20041;-74
2022/12/12 06:48:39;;;;;;;55.10;20.75;;;;;;;;;;5031215;28;20056;-74
2022/12/12 06:51:10;;;;;;;54.83;20.15;;;;;;;;;;5031211;28;20109;-74
2022/12/12 06:53:36;;;;;;;59.53;20.80;;;;;;;;;;5031119;28;20041;-74
2022/12/12 06:56:06;;;;;;;59.03;21.23;;;;;;;;;;5031185;28;20041;-75
2022/12/12 06:58:33;;;;;;;59.30;21.05;;;;;;;;;;5031298;28;20063;-75
2022/12/12 07:00:59;;;;;;;58.67;20.75;;;;;;;;;;5014434;28;20065;-75
2022/12/12 07:03:25;;;;;;;53.72;20.63;;;;;;;;;;5030586;28;20037;-75
2022/12/12 07:05:51;;;;;;;51.88;19.90;;;;;;;;;;5030578;28;20041;-74
2022/12/12 07:08:17;;;;;;;56.20;20.35;;;;;;;;;;5012343;28;20380;-74
2022/12/12 07:10:43;;;;;;;56.00;21.80;;;;;;;;;;5031245;28;20037;-73
2022/12/12 07:13:09;;;;;;;61.55;21.25;;;;;;;;;;5014710;28;20048;-74
2022/12/12 07:15:42;;;;;;;57.20;20.90;;;;;;;;;;5014464;28;20422;-73
2022/12/12 07:18:08;;;;;;;54.50;19.83;;;;;;;;;;5030716;28;20033;-74
2022/12/12 07:20:34;;;;;;;57.15;21.45;;;;;;;;;;5014597;28;20057;-73
2022/12/12 07:23:00;;;;;;;61.67;21.98;;;;;;;;;;5014478;28;20045;-73
2022/12/12 07:25:26;;;;;;;52.95;20.98;;;;;;;;;;5013960;28;20046;-74
2022/12/12 07:27:52;;;;;;;52.92;20.88;;;;;;;;;;5014229;28;20045;-73
2022/12/12 07:30:19;;;;;;;55.80;21.48;;;;;;;;;;5028455;28;20051;-73
2022/12/12 07:32:45;;;;;;;60.85;22.20;;;;;;;;;;5024510;28;20394;-73
2022/12/12 07:35:11;;;;;;;53.20;21.55;;;;;;;;;;5040232;28;20095;-74
2022/12/12 07:37:37;;;;;;;54.67;20.35;;;;;;;;;;4999378;28;20049;-73
2022/12/12 07:40:03;;;;;;;53.17;20.88;;;;;;;;;;5030824;28;20052;-74
2022/12/12 07:42:29;;;;;;;56.50;20.80;;;;;;;;;;5033852;28;20041;-74
2022/12/12 07:44:55;;;;;;;55.42;19.20;;;;;;;;;;5031328;28;20033;-74
2022/12/12 07:47:21;;;;;;;51.53;19.20;;;;;;;;;;4995964;28;20117;-74
2022/12/12 07:49:48;;;;;;;53.55;20.23;;;;;;;;;;5030520;28;20083;-74
2022/12/12 07:52:14;;;;;;;53.40;20.02;;;;;;;;;;5028933;28;20396;-74
2022/12/12 07:54:40;;;;;;;52.75;21.33;;;;;;;;;;5016381;28;20049;-74
2022/12/12 07:57:06;;;;;;;58.10;20.13;;;;;;;;;;5009042;28;20050;-74
2022/12/12 07:59:32;;;;;;;58.30;21.08;;;;;;;;;;5015266;28;20501;-74
2022/12/12 08:01:58;;;;;;;57.78;20.55;;;;;;;;;;5030464;28;20042;-74
2022/12/12 08:04:24;;;;;;;60.35;20.95;;;;;;;;;;5041780;28;20034;-73
2022/12/12 08:06:50;;;;;;;56.35;20.70;;;;;;;;;;5016241;28;20040;-73
2022/12/12 08:09:16;;;;;;;59.70;20.23;;;;;;;;;;5016216;28;20073;-73
2022/12/12 08:11:43;;;;;;;55.83;20.75;;;;;;;;;;5045690;28;20045;-73
2022/12/12 08:14:09;;;;;;;56.17;21.13;;;;;;;;;;5018609;28;20131;-73
2022/12/12 08:16:35;;;;;;;56.33;20.85;;;;;;;;;;5018373;28;20037;-73
2022/12/12 08:19:01;;;;;;;53.63;19.30;;;;;;;;;;4991972;28;20079;-73
2022/12/12 08:21:27;;;;;;;59.53;21.75;;;;;;;;;;5034163;28;20489;-75
2022/12/12 08:23:57;;;;;;;46.65;19.38;;;;;;;;;;5061898;28;20517;-74
2022/12/12 08:26:23;;;;;;;57.70;20.52;;;;;;;;;;5018187;28;20044;-74
2022/12/12 08:28:49;;;;;;;53.92;19.77;;;;;;;;;;5001685;28;20057;-74
2022/12/12 08:31:19;;;;;;;61.63;21.17;;;;;;;;;;5001322;28;20111;-74
2022/12/12 08:33:45;;;;;;;51.35;21.25;;;;;;;;;;5001826;28;20077;-74
2022/12/12 08:36:16;;;;;;;57.25;21.00;;;;;;;;;;5017767;28;20077;-74
2022/12/12 08:38:42;;;;;;;59.58;20.42;;;;;;;;;;5001661;28;20084;-73
2022/12/12 08:41:09;;;;;;;54.97;19.45;;;;;;;;;;5011137;28;20072;-73
2022/12/12 08:43:36;;;;;;;57.75;20.73;;;;;;;;;;5050770;28;20107;-73
2022/12/12 08:46:03;;;;;;;58.05;21.13;;;;;;;;;;5034196;28;20477;-73
2022/12/12 08:48:32;;;;;;;54.60;20.55;;;;;;;;;;5000420;28;20050;-73
2022/12/12 08:50:58;;;;;;;53.10;20.30;;;;;;;;;;5034029;28;20512;-73
2022/12/12 08:53:24;;;;;;;53.95;21.10;;;;;;;;;;5034143;28;20125;-73
2022/12/12 08:55:50;;;;;;;51.35;19.75;;;;;;;;;;5047674;28;20048;-73
2022/12/12 08:58:17;;;;;;;60.78;21.05;;;;;;;;;;5034160;28;20765;-73
2022/12/12 09:00:43;;;;;;;62.17;22.70;;;;;;;;;;5034089;28;20124;-73
2022/12/12 09:03:09;;;;;;;57.30;20.85;;;;;;;;;;5034044;28;20462;-74
2022/12/12 09:05:35;;;;;;;62.38;22.88;;;;;;;;;;5034006;28;20049;-72
2022/12/12 09:08:01;;;;;;;55.97;21.70;;;;;;;;;;5032998;28;20037;-73
2022/12/12 09:10:27;;;;;;;52.25;20.40;;;;;;;;;;5033976;28;20400;-69
2022/12/12 09:12:54;;;;;;;60.50;21.67;;;;;;;;;;5017151;28;20545;-73
2022/12/12 09:15:20;;;;;;;60.78;20.77;;;;;;;;;;5033699;28;20049;-72
2022/12/12 09:17:46;;;;;;;54.67;20.30;;;;;;;;;;5033318;28;20042;-73
2022/12/12 09:20:12;;;;;;;54.55;21.80;;;;;;;;;;5032282;28;20103;-73
2022/12/12 09:22:39;;;;;;;56.95;22.55;;;;;;;;;;5032974;28;20481;-73
2022/12/12 09:25:05;;;;;;;59.10;22.05;;;;;;;;;;5032750;28;20088;-73
2022/12/12 09:27:31;;;;;;;56.03;21.25;;;;;;;;;;5032599;28;20091;-73
2022/12/12 09:29:58;;;;;;;57.55;21.17;;;;;;;;;;5033066;28;20029;-73
2022/12/12 09:32:24;;;;;;;58.20;20.67;;;;;;;;;;5016765;28;20060;-73
2022/12/12 09:34:50;;;;;;;62.92;22.25;;;;;;;;;;5033249;28;20565;-71
2022/12/12 09:37:16;;;;;;;53.45;20.85;;;;;;;;;;5032919;28;20072;-73
2022/12/12 09:39:42;;;;;;;60.03;21.08;;;;;;;;;;5030713;28;20048;-73
2022/12/12 09:42:18;;;;;;;62.05;23.13;;;;;;;;;;4999893;28;20033;-73
2022/12/12 09:44:48;;;;;;;55.40;22.65;;;;;;;;;;5032994;28;20041;-73
2022/12/12 09:47:21;;;;;;;57.80;22.33;;;;;;;;;;5016736;28;20037;-73
2022/12/12 09:49:53;;;;;;;64.88;23.05;;;;;;;;;;5032030;28;20499;-73
2022/12/12 09:52:31;;;;;;;64.13;23.40;;;;;;;;;;5015849;28;20040;-74
2022/12/12 09:54:58;;;;;;;59.65;22.90;;;;;;;;;;5032601;28;20493;-74
2022/12/12 09:57:45;;;;;;;58.13;21.63;;;;;;;;;;5016964;28;20461;-73
2022/12/12 10:00:15;;;;;;;59.42;21.63;;;;;;;;;;5015021;28;20049;-74
2022/12/12 10:03:05;;;;;;;60.05;23.10;;;;;;;;;;5032811;28;20045;-73
2022/12/12 10:05:44;;;;;;;58.10;22.38;;;;;;;;;;5002040;28;20125;-74
2022/12/12 10:08:16;;;;;;;61.80;21.35;;;;;;;;;;5032552;28;20048;-74
2022/12/12 10:10:44;;;;;;;60.38;22.98;;;;;;;;;;5011243;28;20037;-74
2022/12/12 10:13:13;;;;;;;59.35;23.52;;;;;;;;;;5015666;28;20037;-75
2022/12/12 10:15:50;;;;;;;59.10;22.15;;;;;;;;;;5016004;28;20504;-74
2022/12/12 10:18:20;;;;;;;63.53;22.90;;;;;;;;;;5032495;28;20477;-74
2022/12/12 10:20:54;;;;;;;62.20;22.08;;;;;;;;;;5015399;28;20462;-73
2022/12/12 10:23:30;;;;;;;62.40;22.00;;;;;;;;;;5031954;28;20489;-74
2022/12/12 10:26:02;;;;;;;66.40;23.13;;;;;;;;;;5032080;28;20042;-74
2022/12/12 10:28:32;;;;;;;64.80;23.52;;;;;;;;;;5015575;28;20470;-74
2022/12/12 10:31:01;;;;;;;62.05;23.02;;;;;;;;;;5000091;28;20037;-74
2022/12/12 10:33:44;;;;;;;65.00;24.10;;;;;;;;;;5015772;28;20045;-74
2022/12/12 10:36:29;;;;;;;67.68;24.17;;;;;;;;;;5015664;28;20068;-74
2022/12/12 10:38:58;;;;;;;67.78;22.23;;;;;;;;;;5033512;28;20080;-73
2022/12/12 10:41:33;;;;;;;57.33;22.58;;;;;;;;;;5037120;28;20037;-72
2022/12/12 10:44:19;;;;;;;66.10;24.23;;;;;;;;;;5031554;28;20037;-71
2022/12/12 10:47:09;;;;;;;62.92;23.80;;;;;;;;;;5030360;28;20034;-71
2022/12/12 10:49:35;;;;;;;74.47;25.15;;;;;;;;;;5016043;28;20480;-71
2022/12/12 10:52:03;;;;;;;66.35;23.23;;;;;;;;;;5031929;28;20044;-71
2022/12/12 10:54:31;;;;;;;64.43;23.55;;;;;;;;;;5032096;28;20132;-70
2022/12/12 10:57:09;;;;;;;67.05;25.73;;;;;;;;;;5031104;28;20129;-70
2022/12/12 10:59:39;;;;;;;71.63;27.05;;;;;;;;;;5031790;28;20041;-71
2022/12/12 11:02:20;;;;;;;65.35;24.10;;;;;;;;;;5032038;28;20512;-71
2022/12/12 11:04:46;;;;;;;65.20;24.98;;;;;;;;;;5015668;28;20041;-71
2022/12/12 11:07:19;;;;;;;70.50;24.70;;;;;;;;;;5029867;28;20125;-70
2022/12/12 11:09:45;;;;;;;67.70;25.30;;;;;;;;;;5031879;28;20072;-70
2022/12/12 11:12:12;;;;;;;71.75;25.58;;;;;;;;;;5037327;28;20044;-69
2022/12/12 11:14:48;;;;;;;68.57;25.98;;;;;;;;;;5037260;28;20417;-70
2022/12/12 11:17:20;;;;;;;66.50;24.70;;;;;;;;;;5035535;28;20037;-70
2022/12/12 11:19:46;;;;;;;70.53;26.77;;;;;;;;;;5038037;28;20084;-70
2022/12/12 11:22:13;;;;;;;66.50;25.02;;;;;;;;;;5027988;28;20046;-70
2022/12/12 11:24:42;;;;;;;66.60;25.30;;;;;;;;;;5038361;28;20041;-70
2022/12/12 11:27:14;;;;;;;71.30;25.38;;;;;;;;;;5038149;28;20044;-70
2022/12/12 11:29:43;;;;;;;67.50;25.77;;;;;;;;;;5038486;28;20469;-70
2022/12/12 11:32:17;;;;;;;70.03;26.40;;;;;;;;;;5021525;28;20061;-70
2022/12/12 11:34:53;;;;;;;62.70;24.88;;;;;;;;;;5038049;28;20056;-70
2022/12/12 11:37:21;;;;;;;71.97;25.70;;;;;;;;;;5038159;28;20052;-70
2022/12/12 11:39:50;;;;;;;72.03;26.83;;;;;;;;;;5038198;28;20084;-70
2022/12/12 11:42:16;;;;;;;60.55;24.17;;;;;;;;;;5071451;28;20064;-70
2022/12/12 11:44:43;;;;;;;68.50;26.63;;;;;;;;;;5038344;28;20042;-70
2022/12/12 11:47:18;;;;;;;69.57;25.27;;;;;;;;;;5038367;28;20037;-70
2022/12/12 11:49:48;;;;;;;69.47;26.13;;;;;;;;;;5038136;28;20041;-70
2022/12/12 11:52:26;;;;;;;66.93;24.70;;;;;;;;;;5038209;28;20041;-71
2022/12/12 11:54:53;;;;;;;69.75;24.38;;;;;;;;;;5071452;28;20041;-70
2022/12/12 11:57:44;;;;;;;75.13;24.98;;;;;;;;;;5039370;28;20042;-70
2022/12/12 12:00:13;;;;;;;69.78;23.80;;;;;;;;;;5037970;28;20045;-69
2022/12/12 12:02:42;;;;;;;62.47;25.17;;;;;;;;;;5037943;28;20578;-70
2022/12/12 12:05:24;;;;;;;71.10;26.95;;;;;;;;;;5037898;28;20049;-70
2022/12/12 12:08:01;;;;;;;65.13;26.00;;;;;;;;;;5036413;28;20042;-70
2022/12/12 12:10:33;;;;;;;65.20;26.05;;;;;;;;;;5036242;28;20037;-70
2022/12/12 12:13:19;;;;;;;69.88;23.52;;;;;;;;;;5018292;28;20120;-70
2022/12/12 12:15:50;;;;;;;67.03;24.55;;;;;;;;;;5005601;28;20045;-73
2022/12/12 12:18:35;;;;;;;59.15;24.20;;;;;;;;;;5036270;28;20095;-72
2022/12/12 12:21:27;;;;;;;63.55;23.90;;;;;;;;;;5034147;28;20041;-72
2022/12/12 12:24:16;;;;;;;66.63;25.48;;;;;;;;;;5029393;28;20524;-72
2022/12/12 12:26:42;;;;;;;63.30;24.05;;;;;;;;;;5031751;28;20038;-72
2022/12/12 12:29:17;;;;;;;62.53;23.90;;;;;;;;;;5033120;28;20116;-72
2022/12/12 12:31:53;;;;;;;58.78;23.20;;;;;;;;;;5032920;28;20059;-72
2022/12/12 12:34:25;;;;;;;62.33;23.45;;;;;;;;;;5016523;28;20041;-72
2022/12/12 12:37:14;;;;;;;61.47;23.70;;;;;;;;;;5031371;28;20373;-72
2022/12/12 12:39:52;;;;;;;66.47;25.10;;;;;;;;;;5032008;28;20072;-71
2022/12/12 12:42:57;;;;;;;66.05;25.63;;;;;;;;;;5032599;28;20057;-73
2022/12/12 12:45:43;;;;;;;64.60;24.10;;;;;;;;;;5005328;28;20092;-72
2022/12/12 12:48:21;;;;;;;57.85;23.50;;;;;;;;;;4995973;28;20048;-72
2022/12/12 12:51:06;;;;;;;66.47;23.05;;;;;;;;;;5018137;28;20076;-72
2022/12/12 12:54:02;;;;;;;65.43;24.27;;;;;;;;;;5015929;28;20057;-72
2022/12/12 12:56:29;;;;;;;70.47;23.63;;;;;;;;;;5025784;28;20057;-72
2022/12/12 12:59:04;;;;;;;56.78;23.00;;;;;;;;;;5034000;28;20052;-72
2022/12/12 13:01:45;;;;;;;57.97;22.38;;;;;;;;;;5016946;28;20481;-72
2022/12/12 13:04:11;;;;;;;58.80;22.50;;;;;;;;;;5033166;28;20046;-72
2022/12/12 13:06:40;;;;;;;58.10;22.48;;;;;;;;;;5017815;28;20080;-72
2022/12/12 13:09:23;;;;;;;58.15;23.38;;;;;;;;;;5033970;28;20044;-72
2022/12/12 13:11:51;;;;;;;55.92;22.35;;;;;;;;;;5033714;28;20042;-72
2022/12/12 13:14:23;;;;;;;53.83;20.52;;;;;;;;;;5033796;28;20125;-72
2022/12/12 13:16:50;;;;;;;58.42;22.08;;;;;;;;;;5034097;28;20453;-72
2022/12/12 13:19:34;;;;;;;58.97;21.80;;;;;;;;;;5033785;28;20041;-72
2022/12/12 13:22:19;;;;;;;50.28;20.02;;;;;;;;;;5033623;28;20501;-72
2022/12/12 13:25:00;;;;;;;52.20;21.65;;;;;;;;;;5033828;28;20381;-72
2022/12/12 13:27:26;;;;;;;52.90;20.15;;;;;;;;;;5034163;28;20041;-72
2022/12/12 13:29:52;;;;;;;47.90;20.05;;;;;;;;;;5033642;28;20095;-72
2022/12/12 13:32:24;;;;;;;53.10;21.15;;;;;;;;;;5033244;28;20400;-72
2022/12/12 13:34:53;;;;;;;46.10;19.77;;;;;;;;;;5016300;28;20077;-72
2022/12/12 13:37:20;;;;;;;47.72;18.90;;;;;;;;;;5033516;28;20056;-72
2022/12/12 13:39:47;;;;;;;54.45;20.92;;;;;;;;;;5016964;28;20455;-72
2022/12/12 13:42:13;;;;;;;46.20;19.25;;;;;;;;;;5016789;28;20053;-72
2022/12/12 13:44:44;;;;;;;49.83;19.58;;;;;;;;;;5032907;28;20033;-72
2022/12/12 13:47:29;;;;;;;51.28;21.08;;;;;;;;;;5033297;28;20052;-72
2022/12/12 13:50:01;;;;;;;50.42;20.88;;;;;;;;;;5033070;28;20045;-72
2022/12/12 13:52:35;;;;;;;55.10;21.55;;;;;;;;;;5016464;28;20095;-72
2022/12/12 13:55:20;;;;;;;46.15;19.58;;;;;;;;;;5033177;28;20045;-72
2022/12/12 13:57:58;;;;;;;53.38;21.67;;;;;;;;;;5032619;28;20371;-72
2022/12/12 14:00:29;;;;;;;51.40;20.92;;;;;;;;;;5032898;28;20037;-72
2022/12/12 14:02:55;;;;;;;49.47;20.25;;;;;;;;;;5016390;28;20049;-72
2022/12/12 14:05:26;;;;;;;49.13;20.17;;;;;;;;;;5033113;28;20076;-72
2022/12/12 14:08:02;;;;;;;51.38;20.45;;;;;;;;;;5015054;28;20042;-72
2022/12/12 14:10:32;;;;;;;49.40;21.42;;;;;;;;;;5016162;28;20041;-72
2022/12/12 14:13:14;;;;;;;49.28;20.30;;;;;;;;;;5032606;28;20049;-72
2022/12/12 14:15:41;;;;;;;46.88;19.70;;;;;;;;;;5032793;28;20060;-72
2022/12/12 14:18:17;;;;;;;53.97;21.20;;;;;;;;;;5032608;28;20125;-73
2022/12/12 14:20:43;;;;;;;51.33;21.52;;;;;;;;;;5016000;28;20041;-72
2022/12/12 14:23:12;;;;;;;50.92;21.73;;;;;;;;;;5032389;28;20049;-72
2022/12/12 14:25:39;;;;;;;50.10;20.55;;;;;;;;;;5032631;28;20436;-72
2022/12/12 14:28:15;;;;;;;51.10;20.50;;;;;;;;;;5016359;28;20441;-72
2022/12/12 14:30:44;;;;;;;54.80;21.60;;;;;;;;;;5032680;28;20041;-71
2022/12/12 14:33:16;;;;;;;49.95;19.38;;;;;;;;;;5032191;28;20497;-71
2022/12/12 14:36:01;;;;;;;53.03;20.08;;;;;;;;;;5032583;28;20076;-71
2022/12/12 14:39:00;;;;;;;52.45;21.92;;;;;;;;;;5032183;28;20132;-71
2022/12/12 14:41:30;;;;;;;50.45;20.77;;;;;;;;;;5010226;28;20057;-71
2022/12/12 14:43:58;;;;;;;56.47;21.20;;;;;;;;;;5031998;28;20056;-71
2022/12/12 14:46:24;;;;;;;53.47;20.45;;;;;;;;;;5031515;28;20374;-71
2022/12/12 14:49:02;;;;;;;53.33;20.88;;;;;;;;;;5015815;28;20034;-71
2022/12/12 14:51:29;;;;;;;55.65;20.92;;;;;;;;;;5032210;28;20095;-71
2022/12/12 14:53:56;;;;;;;52.78;21.90;;;;;;;;;;5015610;28;20051;-72
2022/12/12 14:56:33;;;;;;;51.13;21.13;;;;;;;;;;5031992;28;20080;-72
2022/12/12 14:59:05;;;;;;;56.08;21.15;;;;;;;;;;5031997;28;20045;-72
2022/12/12 15:01:40;;;;;;;58.95;21.42;;;;;;;;;;5032605;28;20080;-72
2022/12/12 15:04:08;;;;;;;55.33;22.40;;;;;;;;;;5031743;28;20037;-72
2022/12/12 15:06:37;;;;;;;57.60;22.88;;;;;;;;;;5031856;28;20045;-72
2022/12/12 15:09:16;;;;;;;64.05;23.52;;;;;;;;;;5031902;28;20047;-72
2022/12/12 15:11:43;;;;;;;56.58;22.67;;;;;;;;;;5015712;28;20436;-72
2022/12/12 15:14:20;;;;;;;52.55;22.42;;;;;;;;;;5032018;28;20076;-72
2022/12/12 15:16:51;;;;;;;54.58;21.30;;;;;;;;;;5031560;28;20042;-72
2022/12/12 15:19:20;;;;;;;68.70;25.00;;;;;;;;;;5031629;28;20556;-72
2022/12/12 15:21:47;;;;;;;58.08;22.58;;;;;;;;;;5031659;28;20053;-72
2022/12/12 15:24:24;;;;;;;63.38;24.58;;;;;;;;;;5031874;28;20075;-72
2022/12/12 15:26:53;;;;;;;62.97;25.48;;;;;;;;;;5015171;28;20048;-72